createdAt,value
2023-05-02T00:01:20.452Z,20.70
2023-05-02T00:03:47.826Z,22.00
2023-05-02T00:06:14.994Z,22.90
2023-05-02T00:08:42.052Z,26.80
2023-05-02T00:11:09.040Z,31.40
2023-05-02T00:13:36.205Z,34.10
2023-05-02T00:16:03.332Z,36.10
2023-05-02T00:18:30.643Z,32.90
2023-05-02T00:20:57.558Z,29.80
2023-05-02T00:23:24.536Z,28.40
2023-05-02T00:25:51.547Z,26.30
2023-05-02T00:28:19.197Z,24.00
2023-05-02T00:30:46.959Z,22.40
2023-05-02T00:33:15.320Z,24.00
2023-05-02T00:35:42.425Z,23.50
2023-05-02T00:38:09.436Z,25.00
2023-05-02T00:40:46.643Z,24.40
2023-05-02T00:43:14.388Z,23.90
2023-05-02T00:45:42.361Z,22.30
2023-05-02T00:48:09.727Z,20.40
2023-05-02T00:50:41.867Z,17.60
2023-05-02T00:53:09.682Z,16.10
2023-05-02T00:55:37.214Z,16.90
2023-05-02T00:58:12.128Z,18.70
2023-05-02T01:01:27.275Z,17.30
2023-05-02T01:04:04.136Z,17.40
2023-05-02T01:06:43.570Z,15.90
2023-05-02T01:09:32.345Z,13.10
2023-05-02T01:12:05.540Z,14.70
2023-05-02T01:14:41.192Z,11.80
2023-05-02T01:17:10.272Z,11.40
2023-05-02T01:19:41.688Z,15.00
2023-05-02T01:22:09.981Z,15.00
2023-05-02T01:24:44.782Z,16.00
2023-05-02T01:27:19.096Z,15.70
2023-05-02T01:29:46.306Z,12.80
2023-05-02T01:32:13.276Z,14.60
2023-05-02T01:34:40.865Z,14.20
2023-05-02T01:37:08.236Z,12.30
2023-05-02T01:39:36.048Z,11.80
2023-05-02T01:42:03.783Z,12.10
2023-05-02T01:44:31.397Z,12.10
2023-05-02T01:46:59.026Z,12.10
2023-05-02T01:49:26.968Z,12.80
2023-05-02T01:51:53.873Z,11.90
2023-05-02T01:54:21.928Z,12.40
2023-05-02T01:56:49.383Z,12.80
2023-05-02T01:59:20.023Z,11.90
2023-05-02T02:01:47.880Z,9.70
2023-05-02T02:04:15.802Z,12.20
2023-05-02T02:06:46.300Z,12.90
2023-05-02T02:09:14.344Z,12.10
2023-05-02T02:11:49.605Z,13.20
2023-05-02T02:14:21.814Z,12.20
2023-05-02T02:16:49.180Z,12.60
2023-05-02T02:19:16.365Z,11.10
2023-05-02T02:21:44.000Z,8.20
2023-05-02T02:24:11.024Z,8.40
2023-05-02T02:26:38.211Z,8.00
2023-05-02T02:29:05.409Z,9.60
2023-05-02T02:31:36.050Z,9.20
2023-05-02T02:34:03.462Z,8.80
2023-05-02T02:36:36.884Z,7.70
2023-05-02T02:39:07.894Z,7.50
2023-05-02T02:41:46.026Z,7.60
2023-05-02T02:44:34.169Z,5.80
2023-05-02T02:47:12.319Z,6.80
2023-05-02T02:49:40.186Z,7.20
2023-05-02T02:52:25.859Z,6.80
2023-05-02T02:54:56.803Z,7.60
2023-05-02T03:00:04.225Z,7.60
2023-05-02T03:02:32.862Z,7.50
2023-05-02T03:05:00.592Z,7.10
2023-05-02T03:07:28.397Z,7.10
2023-05-02T03:09:55.669Z,6.20
2023-05-02T03:12:22.940Z,6.80
2023-05-02T03:14:50.355Z,7.00
2023-05-02T03:17:17.443Z,7.30
2023-05-02T03:19:44.541Z,7.30
2023-05-02T03:22:12.431Z,7.60
2023-05-02T03:24:40.048Z,7.30
2023-05-02T03:27:07.589Z,7.00
2023-05-02T03:32:05.986Z,5.60
2023-05-02T03:34:33.488Z,5.80
2023-05-02T03:37:01.098Z,5.50
2023-05-02T03:39:28.800Z,6.00
2023-05-02T03:41:56.160Z,6.10
2023-05-02T03:44:23.336Z,5.60
2023-05-02T03:46:50.761Z,6.00
2023-05-02T03:49:19.729Z,5.90
2023-05-02T03:51:46.879Z,6.20
2023-05-02T03:54:14.478Z,7.00
2023-05-02T03:56:42.956Z,6.20
2023-05-02T03:59:19.686Z,7.00
2023-05-02T04:01:50.750Z,8.00
2023-05-02T04:04:21.420Z,8.10
2023-05-02T04:06:52.037Z,8.90
2023-05-02T04:09:23.614Z,8.40
2023-05-02T04:11:54.280Z,9.40
2023-05-02T04:14:21.527Z,9.90
2023-05-02T04:16:50.370Z,8.80
2023-05-02T04:19:21.754Z,8.70
2023-05-02T04:21:48.921Z,6.90
2023-05-02T04:24:16.404Z,6.80
2023-05-02T04:26:43.446Z,7.70
2023-05-02T04:29:13.624Z,8.60
2023-05-02T04:31:41.342Z,7.60
2023-05-02T04:34:09.555Z,8.10
2023-05-02T04:36:42.024Z,7.10
2023-05-02T04:39:10.824Z,8.40
2023-05-02T04:41:41.785Z,13.90
2023-05-02T04:44:09.296Z,6.40
2023-05-02T04:46:37.141Z,7.20
2023-05-02T04:49:04.123Z,6.60
2023-05-02T04:51:31.995Z,7.00
2023-05-02T04:53:59.533Z,5.50
2023-05-02T04:56:27.048Z,6.30
2023-05-02T04:58:54.394Z,6.00
2023-05-02T05:01:22.120Z,5.90
2023-05-02T05:03:49.368Z,6.70
2023-05-02T05:06:19.405Z,5.90
2023-05-02T05:08:48.835Z,5.60
2023-05-02T05:11:16.325Z,6.40
2023-05-02T05:13:44.078Z,4.90
2023-05-02T05:16:12.501Z,5.80
2023-05-02T05:18:42.577Z,5.90
2023-05-02T05:21:12.164Z,5.50
2023-05-02T05:23:39.926Z,7.50
2023-05-02T05:26:11.321Z,5.30
2023-05-02T05:28:40.015Z,4.90
2023-05-02T05:31:08.490Z,6.90
2023-05-02T05:33:35.876Z,5.20
2023-05-02T05:36:17.644Z,4.10
2023-05-02T05:38:45.569Z,4.90
2023-05-02T05:41:12.702Z,5.20
2023-05-02T05:43:44.198Z,3.90
2023-05-02T05:46:11.732Z,4.10
2023-05-02T05:48:38.984Z,4.90
2023-05-02T05:51:06.404Z,8.40
2023-05-02T05:53:33.975Z,5.10
2023-05-02T05:56:12.525Z,4.90
2023-05-02T05:58:44.282Z,4.70
2023-05-02T06:01:13.241Z,4.70
2023-05-02T06:03:40.921Z,6.30
2023-05-02T06:06:08.298Z,5.10
2023-05-02T06:08:35.619Z,4.00
2023-05-02T06:11:02.653Z,5.70
2023-05-02T06:13:29.791Z,4.40
2023-05-02T06:16:01.634Z,5.70
2023-05-02T06:18:30.327Z,4.80
2023-05-02T06:20:57.693Z,4.70
2023-05-02T06:23:24.993Z,5.60
2023-05-02T06:25:52.058Z,4.50
2023-05-02T06:28:19.316Z,4.40
2023-05-02T06:30:46.332Z,4.20
2023-05-02T06:33:13.712Z,4.00
2023-05-02T06:35:41.121Z,10.20
2023-05-02T06:38:08.231Z,4.20
2023-05-02T06:40:37.712Z,3.70
2023-05-02T06:43:05.532Z,5.90
2023-05-02T06:45:32.544Z,3.30
2023-05-02T06:47:59.553Z,4.40
2023-05-02T06:50:26.683Z,3.30
2023-05-02T06:52:53.637Z,3.30
2023-05-02T06:55:21.196Z,5.10
2023-05-02T06:57:51.459Z,4.80
2023-05-02T07:00:18.980Z,5.10
2023-05-02T07:02:47.523Z,5.00
2023-05-02T07:05:15.782Z,4.10
2023-05-02T07:07:43.869Z,4.00
2023-05-02T07:10:11.463Z,4.40
2023-05-02T07:12:39.611Z,6.00
2023-05-02T07:15:07.306Z,4.30
2023-05-02T07:17:35.243Z,4.20
2023-05-02T07:20:02.594Z,4.30
2023-05-02T07:22:30.152Z,4.40
2023-05-02T07:24:58.744Z,5.60
2023-05-02T07:27:25.897Z,4.80
2023-05-02T07:29:53.965Z,3.80
2023-05-02T07:32:22.015Z,3.60
2023-05-02T07:34:49.188Z,3.70
2023-05-02T07:37:16.299Z,5.30
2023-05-02T07:39:43.311Z,8.00
2023-05-02T07:42:10.368Z,6.20
2023-05-02T07:44:37.455Z,3.40
2023-05-02T07:47:04.457Z,3.70
2023-05-02T07:49:31.672Z,4.90
2023-05-02T07:51:58.648Z,5.00
2023-05-02T07:54:26.555Z,4.70
2023-05-02T07:56:54.349Z,6.00
2023-05-02T07:59:21.323Z,6.00
2023-05-02T08:01:48.583Z,5.10
2023-05-02T08:04:16.114Z,2.90
2023-05-02T08:06:45.006Z,3.30
2023-05-02T08:09:12.080Z,3.20
2023-05-02T08:11:39.228Z,4.40
2023-05-02T08:14:06.672Z,6.20
2023-05-02T08:16:33.845Z,3.60
2023-05-02T08:19:01.145Z,5.10
2023-05-02T08:21:32.226Z,4.00
2023-05-02T08:23:59.358Z,6.50
2023-05-02T08:26:27.014Z,3.50
2023-05-02T08:28:55.728Z,4.20
2023-05-02T08:31:22.790Z,4.20
2023-05-02T08:33:49.990Z,3.10
2023-05-02T08:36:17.964Z,3.30
2023-05-02T08:38:45.690Z,4.10
2023-05-02T08:41:19.795Z,3.50
2023-05-02T08:43:46.957Z,3.40
2023-05-02T08:46:16.156Z,3.50
2023-05-02T08:48:44.631Z,4.40
2023-05-02T08:51:13.731Z,8.70
2023-05-02T08:53:41.163Z,6.30
2023-05-02T08:56:08.974Z,3.80
2023-05-02T08:58:37.543Z,3.40
2023-05-02T09:01:15.914Z,6.20
2023-05-02T09:03:47.123Z,6.80
2023-05-02T09:06:16.270Z,4.60
2023-05-02T09:08:44.623Z,6.40
2023-05-02T09:11:12.670Z,3.20
2023-05-02T09:13:46.896Z,4.50
2023-05-02T09:16:14.667Z,6.00
2023-05-02T09:18:47.805Z,4.20
2023-05-02T09:21:27.846Z,4.30
2023-05-02T09:23:55.845Z,3.80
2023-05-02T09:26:35.246Z,3.60
2023-05-02T09:29:03.940Z,4.00
2023-05-02T09:34:16.296Z,9.70
2023-05-02T09:36:44.624Z,5.50
2023-05-02T09:39:16.407Z,3.30
2023-05-02T09:41:45.353Z,3.40
2023-05-02T09:44:13.567Z,6.90
2023-05-02T09:46:44.401Z,4.30
2023-05-02T09:49:11.691Z,4.00
2023-05-02T09:51:38.766Z,15.00
2023-05-02T09:54:05.795Z,4.50
2023-05-02T09:56:57.624Z,5.30
2023-05-02T09:59:25.543Z,3.50
2023-05-02T10:02:00.146Z,4.50
2023-05-02T10:04:27.980Z,6.60
2023-05-02T10:06:55.278Z,4.50
2023-05-02T10:09:22.608Z,4.00
2023-05-02T10:11:54.154Z,3.80
2023-05-02T10:14:22.781Z,3.20
2023-05-02T10:20:32.765Z,5.40
2023-05-02T10:23:00.118Z,3.80
2023-05-02T10:25:27.234Z,3.50
2023-05-02T10:27:56.374Z,3.20
2023-05-02T10:30:25.897Z,2.80
2023-05-02T10:32:54.595Z,5.90
2023-05-02T10:35:22.035Z,3.20
2023-05-02T10:37:49.837Z,4.10
2023-05-02T10:40:16.983Z,3.80
2023-05-02T10:42:46.353Z,3.50
2023-05-02T10:50:02.150Z,3.10
2023-05-02T10:52:32.879Z,5.30
2023-05-02T10:55:19.484Z,2.80
2023-05-02T10:58:02.153Z,3.60
2023-05-02T11:00:33.844Z,2.80
2023-05-02T11:03:01.524Z,3.50
2023-05-02T11:08:15.635Z,2.70
2023-05-02T11:10:43.073Z,3.20
2023-05-02T11:13:10.657Z,3.10
2023-05-02T11:15:40.486Z,2.70
2023-05-02T11:18:08.991Z,2.80
2023-05-02T11:20:37.092Z,2.10
2023-05-02T11:23:16.884Z,2.40
2023-05-02T11:25:45.242Z,4.00
2023-05-02T11:28:39.893Z,4.60
2023-05-02T11:31:30.728Z,2.60
2023-05-02T11:33:58.017Z,2.60
2023-05-02T11:36:33.714Z,3.30
2023-05-02T11:39:05.878Z,2.40
2023-05-02T11:41:42.752Z,7.50
2023-05-02T11:44:10.082Z,2.40
2023-05-02T11:46:37.456Z,3.00
2023-05-02T11:49:06.218Z,2.90
2023-05-02T11:54:02.569Z,2.30
2023-05-02T11:56:29.651Z,2.90
2023-05-02T11:59:01.122Z,2.40
2023-05-02T12:01:28.415Z,2.70
2023-05-02T12:04:08.114Z,3.30
2023-05-02T12:06:35.910Z,3.10
2023-05-02T12:09:10.717Z,3.20
2023-05-02T12:11:38.836Z,2.40
2023-05-02T12:14:06.912Z,2.90
2023-05-02T12:16:34.437Z,3.60
2023-05-02T12:19:01.792Z,2.70
2023-05-02T12:21:30.569Z,2.50
2023-05-02T12:23:57.540Z,3.20
2023-05-02T12:26:33.129Z,3.30
2023-05-02T12:29:02.112Z,3.40
2023-05-02T12:31:31.375Z,3.10
2023-05-02T12:34:00.535Z,4.40
2023-05-02T12:36:28.986Z,2.60
2023-05-02T12:38:59.719Z,2.60
2023-05-02T12:41:33.041Z,2.90
2023-05-02T12:44:03.464Z,2.30
2023-05-02T12:49:06.401Z,2.30
2023-05-02T12:51:34.547Z,2.20
2023-05-02T12:54:02.035Z,2.50
2023-05-02T12:56:32.838Z,2.40
2023-05-02T12:59:01.513Z,2.10
2023-05-02T13:01:28.903Z,3.20
2023-05-02T13:03:56.076Z,3.40
2023-05-02T13:06:23.139Z,2.80
2023-05-02T13:08:50.116Z,4.30
2023-05-02T13:11:18.028Z,4.20
2023-05-02T13:13:45.274Z,3.00
2023-05-02T13:16:12.552Z,2.80
2023-05-02T13:18:39.642Z,3.10
2023-05-02T13:21:06.739Z,3.10
2023-05-02T13:23:33.719Z,2.70
2023-05-02T13:26:00.740Z,14.10
2023-05-02T13:28:29.254Z,2.60
2023-05-02T13:30:56.315Z,2.70
2023-05-02T13:33:23.266Z,3.30
2023-05-02T13:35:50.202Z,3.50
2023-05-02T13:38:17.190Z,2.50
2023-05-02T13:40:44.167Z,2.70
2023-05-02T13:43:11.133Z,4.30
2023-05-02T13:45:38.108Z,2.40
2023-05-02T13:48:05.864Z,2.70
2023-05-02T13:50:37.850Z,4.30
2023-05-02T13:53:04.795Z,6.60
2023-05-02T13:55:31.808Z,4.80
2023-05-02T13:57:58.921Z,5.40
2023-05-02T14:00:28.057Z,3.30
2023-05-02T14:02:55.737Z,2.60
2023-05-02T14:05:22.875Z,3.00
2023-05-02T14:07:50.085Z,3.60
2023-05-02T14:10:17.169Z,5.30
2023-05-02T14:12:44.428Z,3.10
2023-05-02T14:15:11.929Z,3.50
2023-05-02T14:17:39.509Z,3.00
2023-05-02T14:20:07.967Z,3.00
2023-05-02T14:22:34.983Z,4.60
2023-05-02T14:25:01.915Z,4.00
2023-05-02T14:27:29.227Z,3.20
2023-05-02T14:29:56.472Z,3.40
2023-05-02T14:32:23.380Z,3.80
2023-05-02T14:34:50.333Z,3.60
2023-05-02T14:37:17.246Z,3.00
2023-05-02T14:39:47.437Z,3.50
2023-05-02T14:42:15.510Z,3.90
2023-05-02T14:44:42.513Z,4.30
2023-05-02T14:47:10.972Z,3.50
2023-05-02T14:49:37.933Z,4.50
2023-05-02T14:52:04.911Z,3.50
2023-05-02T14:54:31.874Z,3.50
2023-05-02T14:57:00.339Z,3.00
2023-05-02T14:59:30.717Z,3.50
2023-05-02T15:01:57.815Z,3.60
2023-05-02T15:04:27.466Z,4.30
2023-05-02T15:06:56.214Z,3.80
2023-05-02T15:09:26.679Z,4.20
2023-05-02T15:11:53.879Z,3.50
2023-05-02T15:14:21.107Z,3.20
2023-05-02T15:16:48.288Z,3.70
2023-05-02T15:19:15.318Z,4.70
2023-05-02T15:21:42.468Z,4.50
2023-05-02T15:24:10.728Z,4.70
2023-05-02T15:26:40.492Z,5.10
2023-05-02T15:29:07.634Z,4.70
2023-05-02T15:31:35.085Z,6.30
2023-05-02T15:34:02.045Z,5.50
2023-05-02T15:36:30.140Z,5.90
2023-05-02T15:38:57.266Z,7.90
2023-05-02T15:41:27.548Z,6.00
2023-05-02T15:43:54.495Z,8.30
2023-05-02T15:46:21.547Z,4.60
2023-05-02T15:48:48.692Z,5.50
2023-05-02T15:51:15.871Z,5.80
2023-05-02T15:53:44.427Z,7.60
2023-05-02T15:56:11.805Z,6.80
2023-05-02T15:58:39.099Z,6.80
2023-05-02T16:01:06.395Z,7.00
2023-05-02T16:03:34.315Z,6.60
2023-05-02T16:06:01.659Z,6.10
2023-05-02T16:08:28.741Z,15.70
2023-05-02T16:10:56.494Z,9.40
2023-05-02T16:13:23.797Z,9.00
2023-05-02T16:15:53.642Z,8.90
2023-05-02T16:18:28.792Z,8.10
2023-05-02T16:20:57.187Z,8.40
2023-05-02T16:23:26.010Z,7.20
2023-05-02T16:25:59.759Z,6.20
2023-05-02T16:28:26.810Z,5.10
2023-05-02T16:30:53.848Z,5.50
2023-05-02T16:33:21.886Z,4.90
2023-05-02T16:35:49.014Z,6.90
2023-05-02T16:38:16.325Z,7.10
2023-05-02T16:40:43.900Z,8.40
2023-05-02T16:43:10.842Z,10.20
2023-05-02T16:45:38.792Z,9.80
2023-05-02T16:48:06.816Z,10.40
2023-05-02T16:50:33.938Z,13.50
2023-05-02T16:53:01.003Z,12.70
2023-05-02T16:55:27.926Z,10.80
2023-05-02T16:57:54.998Z,10.70
2023-05-02T17:00:22.096Z,14.30
2023-05-02T17:02:49.145Z,13.00
2023-05-02T17:05:17.228Z,11.90
2023-05-02T17:07:44.470Z,10.70
2023-05-02T17:10:12.728Z,7.80
2023-05-02T17:12:40.104Z,8.40
2023-05-02T17:15:08.186Z,7.80
2023-05-02T17:17:35.231Z,11.00
2023-05-02T17:20:02.610Z,10.80
2023-05-02T17:22:30.916Z,23.00
2023-05-02T17:24:57.892Z,12.30
2023-05-02T17:27:24.891Z,22.70
2023-05-02T17:29:51.801Z,32.50
2023-05-02T17:32:18.809Z,9.00
2023-05-02T17:34:45.868Z,7.80
2023-05-02T17:37:12.879Z,9.60
2023-05-02T17:39:39.809Z,8.50
2023-05-02T17:42:07.229Z,9.80
2023-05-02T17:44:36.981Z,9.00
2023-05-02T17:47:04.504Z,10.70
2023-05-02T17:49:32.231Z,9.50
2023-05-02T17:51:59.182Z,7.40
2023-05-02T17:54:26.119Z,7.90
2023-05-02T17:56:53.515Z,8.30
2023-05-02T17:59:20.754Z,8.20
2023-05-02T18:01:48.360Z,10.80
2023-05-02T18:04:16.206Z,6.30
2023-05-02T18:06:43.280Z,6.60
2023-05-02T18:09:10.238Z,6.10
2023-05-02T18:11:37.751Z,6.50
2023-05-02T18:14:06.314Z,6.10
2023-05-02T18:16:34.647Z,6.30
2023-05-02T18:19:01.788Z,8.20
2023-05-02T18:21:29.309Z,20.10
2023-05-02T18:23:59.270Z,35.20
2023-05-02T18:26:26.856Z,33.80
2023-05-02T18:28:53.811Z,35.30
2023-05-02T18:31:21.370Z,35.50
2023-05-02T18:33:48.916Z,26.60
2023-05-02T18:36:20.490Z,24.90
2023-05-02T18:38:47.556Z,21.10
2023-05-02T18:41:14.489Z,47.30
2023-05-02T18:43:41.424Z,25.00
2023-05-02T18:46:08.632Z,16.30
2023-05-02T18:48:36.405Z,14.60
2023-05-02T18:51:03.509Z,18.70
2023-05-02T18:53:31.242Z,26.00
2023-05-02T18:55:58.244Z,23.00
2023-05-02T18:58:25.131Z,32.50
2023-05-02T19:00:52.048Z,59.20
2023-05-02T19:03:20.333Z,31.20
2023-05-02T19:05:47.383Z,44.90
2023-05-02T19:08:14.774Z,21.60
2023-05-02T19:10:41.990Z,19.90
2023-05-02T19:13:09.214Z,15.20
2023-05-02T19:15:36.473Z,16.70
2023-05-02T19:18:03.758Z,11.80
2023-05-02T19:20:31.293Z,11.10
2023-05-02T19:23:15.310Z,12.70
2023-05-02T19:25:46.644Z,11.40
2023-05-02T19:28:15.781Z,12.20
2023-05-02T19:30:43.574Z,17.20
2023-05-02T19:33:11.005Z,15.40
2023-05-02T19:35:38.226Z,22.70
2023-05-02T19:38:05.385Z,34.90
2023-05-02T19:40:33.704Z,28.40
2023-05-02T19:43:00.752Z,21.40
2023-05-02T19:45:27.914Z,19.30
2023-05-02T19:47:54.880Z,19.40
2023-05-02T19:50:21.794Z,19.10
2023-05-02T19:52:50.340Z,16.40
2023-05-02T19:55:18.577Z,16.80
2023-05-02T19:57:45.664Z,15.10
2023-05-02T20:00:14.159Z,17.50
2023-05-02T20:02:42.266Z,23.90
2023-05-02T20:05:09.727Z,25.90
2023-05-02T20:07:37.660Z,21.80
2023-05-02T20:10:06.767Z,16.50
2023-05-02T20:12:34.228Z,16.60
2023-05-02T20:15:01.352Z,18.00
2023-05-02T20:17:29.410Z,19.20
2023-05-02T20:19:57.513Z,15.70
2023-05-02T20:22:24.507Z,15.10
2023-05-02T20:24:51.473Z,16.40
2023-05-02T20:27:18.356Z,22.20
2023-05-02T20:29:45.280Z,21.90
2023-05-02T20:32:12.203Z,24.40
2023-05-02T20:34:40.409Z,25.90
2023-05-02T20:37:07.379Z,29.70
2023-05-02T20:39:34.893Z,29.90
2023-05-02T20:42:01.930Z,33.60
2023-05-02T20:44:33.565Z,35.20
2023-05-02T20:47:00.891Z,34.70
2023-05-02T20:49:32.101Z,29.60
2023-05-02T20:52:05.604Z,25.70
2023-05-02T20:54:32.584Z,24.40
2023-05-02T20:56:59.514Z,26.30
2023-05-02T20:59:26.867Z,26.50
2023-05-02T21:01:53.880Z,27.80
2023-05-02T21:04:20.983Z,21.60
2023-05-02T21:06:49.014Z,23.50
2023-05-02T21:09:16.974Z,29.50
2023-05-02T21:11:44.329Z,35.80
2023-05-02T21:14:11.894Z,35.10
2023-05-02T21:16:39.545Z,38.50
2023-05-02T21:19:06.474Z,38.80
2023-05-02T21:21:33.726Z,37.30
2023-05-02T21:24:01.499Z,32.40
2023-05-02T21:26:28.611Z,33.60
2023-05-02T21:28:55.646Z,30.50
2023-05-02T21:31:22.726Z,26.70
2023-05-02T21:33:49.662Z,31.80
2023-05-02T21:36:16.618Z,30.40
2023-05-02T21:38:43.830Z,24.20
2023-05-02T21:41:10.914Z,24.90
2023-05-02T21:43:40.947Z,24.60
2023-05-02T21:46:10.731Z,23.80
2023-05-02T21:48:38.396Z,26.10
2023-05-02T21:51:10.048Z,22.80
2023-05-02T21:53:37.382Z,13.50
2023-05-02T21:56:05.935Z,10.70
2023-05-02T21:58:32.940Z,11.00
2023-05-02T22:01:00.879Z,10.70
2023-05-02T22:03:28.318Z,8.90
2023-05-02T22:05:56.168Z,9.10
2023-05-02T22:08:24.133Z,10.90
2023-05-02T22:10:51.639Z,9.80
2023-05-02T22:13:18.853Z,7.30
2023-05-02T22:15:46.576Z,7.60
2023-05-02T22:18:14.272Z,8.70
2023-05-02T22:20:42.341Z,7.90
2023-05-02T22:23:09.694Z,8.90
2023-05-02T22:25:39.098Z,8.30
2023-05-02T22:28:07.125Z,9.00
2023-05-02T22:30:34.471Z,8.40
2023-05-02T22:33:02.344Z,8.30
2023-05-02T22:35:29.613Z,8.50
2023-05-02T22:37:59.645Z,7.80
2023-05-02T22:40:26.742Z,7.20
2023-05-02T22:42:53.707Z,8.20
2023-05-02T22:45:20.659Z,8.30
2023-05-02T22:47:47.612Z,7.20
2023-05-02T22:50:14.593Z,7.00
2023-05-02T22:52:42.206Z,9.80
2023-05-02T22:55:09.657Z,7.20
2023-05-02T22:57:37.209Z,6.20
2023-05-02T23:00:09.335Z,6.90
2023-05-02T23:02:37.603Z,7.20
2023-05-02T23:05:05.210Z,6.20
2023-05-02T23:07:32.501Z,6.40
2023-05-02T23:09:59.489Z,7.10
2023-05-02T23:12:27.663Z,6.90
2023-05-02T23:14:54.994Z,6.70
2023-05-02T23:17:22.055Z,7.00
2023-05-02T23:19:49.988Z,8.80
2023-05-02T23:22:17.146Z,8.80
2023-05-02T23:24:46.298Z,7.80
2023-05-02T23:27:13.591Z,5.30
2023-05-02T23:29:40.736Z,6.20
2023-05-02T23:32:08.174Z,6.30
2023-05-02T23:34:38.331Z,6.80
2023-05-02T23:37:07.081Z,6.50
2023-05-02T23:39:34.860Z,6.70
2023-05-02T23:42:03.857Z,6.40
2023-05-02T23:44:32.514Z,6.80
2023-05-02T23:46:59.760Z,6.50
2023-05-02T23:49:27.022Z,6.70
2023-05-02T23:51:53.944Z,6.50
2023-05-02T23:54:20.919Z,8.10
2023-05-02T23:56:47.943Z,11.50
2023-05-02T23:59:15.292Z,7.30
